createdAt,value
2018-07-04T00:00:38.442Z,0.00
2018-07-04T00:02:33.266Z,0.00
2018-07-04T00:03:33.139Z,0.00
2018-07-04T00:05:27.440Z,0.00
2018-07-04T00:06:27.348Z,0.00
2018-07-04T00:08:21.660Z,0.00
2018-07-04T00:09:21.563Z,0.00
2018-07-04T00:11:15.873Z,0.00
2018-07-04T00:12:15.784Z,0.00
2018-07-04T00:14:10.093Z,0.00
2018-07-04T00:15:09.993Z,0.00
2018-07-04T00:16:09.935Z,0.00
2018-07-04T00:17:09.873Z,0.00
2018-07-04T00:18:09.816Z,0.00
2018-07-04T00:19:09.755Z,0.00
2018-07-04T00:20:09.697Z,0.00
2018-07-04T00:21:09.646Z,0.00
2018-07-04T00:22:09.579Z,0.00
2018-07-04T00:23:09.524Z,0.00
2018-07-04T00:24:09.465Z,0.00
2018-07-04T00:25:09.408Z,0.00
2018-07-04T00:26:09.344Z,0.00
2018-07-04T00:27:09.286Z,0.00
2018-07-04T00:28:09.229Z,0.00
2018-07-04T00:29:09.169Z,0.00
2018-07-04T00:30:09.107Z,0.00
2018-07-04T00:31:09.053Z,0.00
2018-07-04T00:32:08.998Z,0.00
2018-07-04T00:33:08.932Z,0.00
2018-07-04T00:34:08.875Z,0.00
2018-07-04T00:35:08.817Z,0.00
2018-07-04T00:36:08.765Z,0.00
2018-07-04T00:37:08.701Z,0.00
2018-07-04T00:38:08.638Z,0.00
2018-07-04T00:39:08.584Z,0.00
2018-07-04T00:40:08.520Z,0.00
2018-07-04T00:41:08.458Z,0.00
2018-07-04T00:42:08.406Z,0.00
2018-07-04T00:43:08.346Z,0.00
2018-07-04T00:44:08.284Z,0.00
2018-07-04T00:45:08.226Z,0.00
2018-07-04T00:46:08.167Z,0.00
2018-07-04T00:47:08.111Z,0.00
2018-07-04T00:48:08.050Z,0.00
2018-07-04T00:49:07.991Z,0.00
2018-07-04T00:50:07.929Z,0.00
2018-07-04T00:51:07.871Z,0.00
2018-07-04T00:52:07.813Z,0.00
2018-07-04T00:53:07.754Z,0.00
2018-07-04T00:54:07.699Z,0.00
2018-07-04T00:55:07.640Z,0.00
2018-07-04T00:56:07.580Z,0.00
2018-07-04T00:57:07.516Z,0.00
2018-07-04T00:58:07.457Z,0.00
2018-07-04T00:59:07.399Z,0.00
2018-07-04T01:00:07.342Z,0.00
2018-07-04T01:01:07.279Z,0.00
2018-07-04T01:02:07.222Z,0.00
2018-07-04T01:03:07.160Z,0.00
2018-07-04T01:04:07.102Z,0.00
2018-07-04T01:05:07.046Z,0.00
2018-07-04T01:06:06.988Z,0.00
2018-07-04T01:07:06.925Z,0.00
2018-07-04T01:08:06.869Z,0.00
2018-07-04T01:09:06.807Z,0.00
2018-07-04T01:10:06.756Z,0.00
2018-07-04T01:11:06.687Z,0.00
2018-07-04T01:12:06.631Z,0.00
2018-07-04T01:13:06.572Z,0.00
2018-07-04T01:14:06.514Z,0.00
2018-07-04T01:15:06.451Z,0.00
2018-07-04T01:16:06.398Z,0.00
2018-07-04T01:17:06.334Z,0.00
2018-07-04T01:18:06.274Z,0.00
2018-07-04T01:19:06.214Z,0.00
2018-07-04T01:20:06.158Z,0.00
2018-07-04T01:21:06.091Z,0.00
2018-07-04T01:22:06.037Z,0.00
2018-07-04T01:23:05.980Z,0.00
2018-07-04T01:24:05.917Z,0.00
2018-07-04T01:25:05.860Z,0.00
2018-07-04T01:26:05.798Z,0.00
2018-07-04T01:27:05.744Z,0.00
2018-07-04T01:28:05.680Z,0.00
2018-07-04T01:29:05.618Z,0.00
2018-07-04T01:30:05.560Z,0.00
2018-07-04T01:31:05.502Z,0.00
2018-07-04T01:32:05.441Z,0.00
2018-07-04T01:33:05.383Z,0.00
2018-07-04T01:34:05.321Z,0.00
2018-07-04T01:35:05.261Z,0.00
2018-07-04T01:36:05.204Z,0.00
2018-07-04T01:37:05.145Z,0.00
2018-07-04T01:38:05.084Z,0.00
2018-07-04T01:39:05.028Z,0.00
2018-07-04T01:40:04.968Z,0.00
2018-07-04T01:41:04.905Z,0.00
2018-07-04T01:42:04.848Z,0.00
2018-07-04T01:43:04.783Z,0.00
2018-07-04T01:44:04.734Z,0.00
2018-07-04T01:45:04.670Z,0.00
2018-07-04T01:46:04.612Z,0.00
2018-07-04T01:47:04.549Z,0.00
2018-07-04T01:48:04.492Z,0.00
2018-07-04T01:49:04.431Z,0.00
2018-07-04T01:50:04.376Z,0.00
2018-07-04T01:51:04.313Z,0.00
2018-07-04T01:52:04.253Z,0.00
2018-07-04T01:53:04.192Z,0.00
2018-07-04T01:54:04.133Z,0.00
2018-07-04T01:55:04.071Z,0.00
2018-07-04T01:56:04.014Z,0.00
2018-07-04T01:57:03.959Z,0.00
2018-07-04T01:58:03.895Z,0.00
2018-07-04T01:59:03.836Z,0.00
2018-07-04T02:00:03.775Z,0.00
2018-07-04T02:01:03.713Z,0.00
2018-07-04T02:02:03.656Z,0.00
2018-07-04T02:03:03.599Z,0.00
2018-07-04T02:04:03.544Z,0.00
2018-07-04T02:05:03.476Z,0.00
2018-07-04T02:06:03.417Z,0.00
2018-07-04T02:07:03.358Z,0.00
2018-07-04T02:08:03.301Z,0.00
2018-07-04T02:09:03.240Z,0.00
2018-07-04T02:10:03.184Z,0.00
2018-07-04T02:11:03.149Z,0.00
2018-07-04T02:12:03.061Z,0.00
2018-07-04T02:13:02.999Z,0.00
2018-07-04T02:14:02.936Z,0.00
2018-07-04T02:15:02.878Z,0.00
2018-07-04T02:16:02.819Z,0.00
2018-07-04T02:17:02.765Z,0.00
2018-07-04T02:18:02.712Z,0.00
2018-07-04T02:19:02.640Z,0.00
2018-07-04T02:20:02.584Z,0.00
2018-07-04T02:21:02.542Z,0.00
2018-07-04T02:22:02.463Z,0.00
2018-07-04T02:23:02.401Z,0.00
2018-07-04T02:24:02.342Z,0.00
2018-07-04T02:25:02.281Z,0.00
2018-07-04T02:26:02.220Z,0.00
2018-07-04T02:27:02.167Z,0.00
2018-07-04T02:28:02.100Z,0.00
2018-07-04T02:29:02.042Z,0.00
2018-07-04T02:30:01.984Z,0.00
2018-07-04T02:31:01.923Z,0.00
2018-07-04T02:32:01.863Z,0.00
2018-07-04T02:33:01.805Z,0.00
2018-07-04T02:34:01.749Z,0.00
2018-07-04T02:35:01.682Z,0.00
2018-07-04T02:36:01.622Z,0.00
2018-07-04T02:37:01.559Z,0.00
2018-07-04T02:38:01.501Z,0.00
2018-07-04T02:39:01.441Z,5.63
2018-07-04T02:40:01.400Z,5.63
2018-07-04T02:41:01.323Z,5.63
2018-07-04T02:42:01.262Z,5.63
2018-07-04T02:43:01.210Z,5.63
2018-07-04T02:44:01.144Z,5.63
2018-07-04T02:45:01.163Z,5.63
2018-07-04T02:46:01.023Z,5.63
2018-07-04T02:47:00.956Z,11.25
2018-07-04T02:48:00.900Z,11.25
2018-07-04T02:49:00.848Z,11.25
2018-07-04T02:50:00.783Z,11.25
2018-07-04T02:51:00.723Z,11.25
2018-07-04T02:52:00.658Z,11.25
2018-07-04T02:53:00.606Z,16.88
2018-07-04T02:54:00.542Z,16.88
2018-07-04T02:55:00.479Z,16.88
2018-07-04T02:56:00.423Z,16.88
2018-07-04T02:57:00.357Z,16.88
2018-07-04T02:58:00.305Z,22.50
2018-07-04T02:59:00.241Z,22.50
2018-07-04T03:00:00.177Z,22.50
2018-07-04T03:01:00.117Z,22.50
2018-07-04T03:02:00.060Z,28.13
2018-07-04T03:02:59.998Z,28.13
2018-07-04T03:03:59.939Z,28.13
2018-07-04T03:04:59.879Z,28.13
2018-07-04T03:05:59.815Z,33.75
2018-07-04T03:06:59.756Z,33.75
2018-07-04T03:07:59.697Z,33.75
2018-07-04T03:08:59.637Z,39.38
2018-07-04T03:09:59.572Z,39.38
2018-07-04T03:10:59.514Z,39.38
2018-07-04T03:11:59.463Z,39.38
2018-07-04T03:12:59.393Z,45.00
2018-07-04T03:13:59.334Z,45.00
2018-07-04T03:14:59.273Z,45.00
2018-07-04T03:15:59.213Z,50.63
2018-07-04T03:16:59.152Z,50.63
2018-07-04T03:17:59.104Z,50.63
2018-07-04T03:18:59.030Z,56.25
2018-07-04T03:19:58.986Z,56.25
2018-07-04T03:20:58.916Z,56.25
2018-07-04T03:21:58.848Z,61.88
2018-07-04T03:22:58.789Z,61.88
2018-07-04T03:23:58.728Z,61.88
2018-07-04T03:24:58.671Z,67.50
2018-07-04T03:25:58.609Z,67.50
2018-07-04T03:26:58.551Z,67.50
2018-07-04T03:28:07.371Z,73.13
2018-07-04T03:29:52.782Z,73.13
2018-07-04T03:30:52.691Z,78.75
2018-07-04T03:32:47.106Z,78.75
2018-07-04T03:33:46.899Z,84.38
2018-07-04T03:35:41.205Z,84.38
2018-07-04T03:36:41.106Z,90.00
2018-07-04T03:38:35.404Z,90.00
2018-07-04T03:39:42.953Z,90.00
2018-07-04T03:41:38.233Z,95.63
2018-07-04T03:42:29.523Z,95.63
2018-07-04T03:44:23.933Z,101.25
2018-07-04T03:45:23.850Z,101.25
2018-07-04T03:47:18.154Z,101.25
2018-07-04T03:48:18.059Z,106.88
2018-07-04T03:50:11.373Z,106.88
2018-07-04T03:51:11.271Z,112.50
2018-07-04T03:53:05.577Z,118.13
2018-07-04T03:54:05.488Z,118.13
2018-07-04T03:56:00.396Z,123.75
2018-07-04T03:56:59.689Z,123.75
2018-07-04T03:58:52.993Z,129.38
2018-07-04T03:59:52.904Z,135.00
2018-07-04T04:01:47.815Z,140.63
2018-07-04T04:02:47.110Z,140.63
2018-07-04T04:04:40.407Z,140.63
2018-07-04T04:05:40.329Z,146.25
2018-07-04T04:07:34.620Z,146.25
2018-07-04T04:08:34.532Z,151.88
2018-07-04T04:10:28.833Z,151.88
2018-07-04T04:11:28.734Z,157.50
2018-07-04T04:13:23.051Z,157.50
2018-07-04T04:14:30.587Z,157.50
2018-07-04T04:16:17.251Z,157.50
2018-07-04T04:17:25.804Z,163.13
2018-07-04T04:19:11.455Z,163.13
2018-07-04T04:20:11.369Z,168.75
2018-07-04T04:22:13.293Z,168.75
2018-07-04T04:23:05.572Z,174.38
2018-07-04T04:24:59.878Z,180.00
2018-07-04T04:26:07.408Z,180.00
2018-07-04T04:27:54.080Z,185.63
2018-07-04T04:29:01.628Z,185.63
2018-07-04T04:30:48.294Z,191.25
2018-07-04T04:31:55.822Z,191.25
2018-07-04T04:33:42.484Z,196.88
2018-07-04T04:34:51.017Z,196.88
2018-07-04T04:36:44.323Z,202.50
2018-07-04T04:37:44.243Z,202.50
2018-07-04T04:39:29.919Z,208.13
2018-07-04T04:40:38.458Z,213.75
2018-07-04T04:42:32.746Z,213.75
2018-07-04T04:43:32.649Z,213.75
2018-07-04T04:45:18.329Z,219.38
2018-07-04T04:46:26.853Z,225.00
2018-07-04T04:48:11.539Z,225.00
2018-07-04T04:49:19.074Z,230.63
2018-07-04T04:51:05.745Z,230.63
2018-07-04T04:52:05.651Z,230.63
2018-07-04T04:53:59.946Z,230.63
2018-07-04T04:54:59.857Z,230.63
2018-07-04T04:56:53.176Z,236.25
2018-07-04T04:57:53.082Z,236.25
2018-07-04T04:59:47.383Z,241.88
2018-07-04T05:00:47.290Z,241.88
2018-07-04T05:02:40.605Z,247.50
2018-07-04T05:03:40.514Z,247.50
2018-07-04T05:05:34.825Z,247.50
2018-07-04T05:06:34.726Z,253.13
2018-07-04T05:08:29.028Z,258.75
2018-07-04T05:09:28.931Z,258.75
2018-07-04T05:11:23.244Z,286.88
2018-07-04T05:12:23.137Z,337.50
2018-07-04T05:14:17.055Z,405.00
2018-07-04T05:15:16.359Z,410.63
2018-07-04T05:17:10.665Z,405.00
2018-07-04T05:18:10.566Z,393.75
2018-07-04T05:20:03.873Z,376.88
2018-07-04T05:21:03.790Z,444.38
2018-07-04T05:22:58.098Z,427.50
2018-07-04T05:23:58.002Z,371.25
2018-07-04T05:25:51.307Z,500.63
2018-07-04T05:26:51.218Z,528.75
2018-07-04T05:28:45.519Z,478.13
2018-07-04T05:29:45.431Z,410.63
2018-07-04T05:31:39.731Z,360.00
2018-07-04T05:32:39.639Z,320.63
2018-07-04T05:34:32.970Z,292.50
2018-07-04T05:35:32.874Z,292.50
2018-07-04T05:37:27.171Z,292.50
2018-07-04T05:38:27.082Z,292.50
2018-07-04T05:40:21.384Z,292.50
2018-07-04T05:41:21.290Z,292.50
2018-07-04T05:43:15.613Z,298.13
2018-07-04T05:44:15.521Z,298.13
2018-07-04T05:46:09.828Z,298.13
2018-07-04T05:47:09.725Z,303.75
2018-07-04T05:49:04.061Z,303.75
2018-07-04T05:50:03.973Z,309.38
2018-07-04T05:51:58.280Z,303.75
2018-07-04T05:52:58.188Z,309.38
2018-07-04T05:54:52.484Z,309.38
2018-07-04T05:55:52.396Z,309.38
2018-07-04T05:57:46.719Z,315.00
2018-07-04T05:58:46.619Z,315.00
2018-07-04T06:00:40.926Z,315.00
2018-07-04T06:01:40.832Z,315.00
2018-07-04T06:03:35.132Z,315.00
2018-07-04T06:04:35.045Z,320.63
2018-07-04T06:06:28.352Z,320.63
2018-07-04T06:07:28.262Z,320.63
2018-07-04T06:09:22.573Z,326.25
2018-07-04T06:10:22.482Z,326.25
2018-07-04T06:12:15.794Z,326.25
2018-07-04T06:13:15.706Z,326.25
2018-07-04T06:15:10.024Z,326.25
2018-07-04T06:16:09.922Z,331.88
2018-07-04T06:18:04.227Z,331.88
2018-07-04T06:19:04.137Z,331.88
2018-07-04T06:20:58.450Z,337.50
2018-07-04T06:21:58.356Z,337.50
2018-07-04T06:23:52.664Z,337.50
2018-07-04T06:24:52.574Z,337.50
2018-07-04T06:26:46.885Z,337.50
2018-07-04T06:27:46.786Z,337.50
2018-07-04T06:29:40.106Z,343.13
2018-07-04T06:30:40.014Z,343.13
2018-07-04T06:32:34.333Z,343.13
2018-07-04T06:33:34.224Z,343.13
2018-07-04T06:35:28.637Z,343.13
2018-07-04T06:36:28.452Z,343.13
2018-07-04T06:38:22.750Z,343.13
2018-07-04T06:39:22.665Z,343.13
2018-07-04T06:41:17.261Z,343.13
2018-07-04T06:42:17.174Z,343.13
2018-07-04T06:44:11.722Z,343.13
2018-07-04T06:45:11.620Z,348.75
2018-07-04T06:47:05.933Z,348.75
2018-07-04T06:48:05.836Z,348.75
2018-07-04T06:49:05.823Z,348.75
2018-07-04T06:50:05.722Z,348.75
2018-07-04T06:51:05.666Z,348.75
2018-07-04T06:52:05.615Z,348.75
2018-07-04T06:53:05.548Z,354.38
2018-07-04T06:54:05.513Z,354.38
2018-07-04T06:55:05.435Z,354.38
2018-07-04T06:56:05.378Z,354.38
2018-07-04T06:57:05.323Z,354.38
2018-07-04T06:58:05.266Z,354.38
2018-07-04T06:59:05.211Z,354.38
2018-07-04T07:00:05.152Z,354.38
2018-07-04T07:01:05.105Z,354.38
2018-07-04T07:02:05.039Z,354.38
2018-07-04T07:03:04.987Z,354.38
2018-07-04T07:04:04.926Z,354.38
2018-07-04T07:05:04.869Z,354.38
2018-07-04T07:06:04.812Z,354.38
2018-07-04T07:07:04.754Z,354.38
2018-07-04T07:08:04.707Z,354.38
2018-07-04T07:09:04.647Z,354.38
2018-07-04T07:10:04.586Z,354.38
2018-07-04T07:11:04.529Z,354.38
2018-07-04T07:12:04.473Z,354.38
2018-07-04T07:13:04.425Z,354.38
2018-07-04T07:14:04.353Z,354.38
2018-07-04T07:15:04.311Z,354.38
2018-07-04T07:16:04.241Z,354.38
2018-07-04T07:17:04.228Z,354.38
2018-07-04T07:18:04.134Z,354.38
2018-07-04T07:19:04.074Z,354.38
2018-07-04T07:20:04.018Z,354.38
2018-07-04T07:21:03.983Z,354.38
2018-07-04T07:22:03.905Z,354.38
2018-07-04T07:23:03.853Z,354.38
2018-07-04T07:24:03.794Z,354.38
2018-07-04T07:25:03.737Z,354.38
2018-07-04T07:26:03.680Z,354.38
2018-07-04T07:27:03.623Z,360.00
2018-07-04T07:28:03.567Z,360.00
2018-07-04T07:29:03.512Z,360.00
2018-07-04T07:30:03.464Z,360.00
2018-07-04T07:31:03.399Z,365.63
2018-07-04T07:32:03.366Z,365.63
2018-07-04T07:33:03.283Z,360.00
2018-07-04T07:34:03.304Z,360.00
2018-07-04T07:35:03.173Z,360.00
2018-07-04T07:36:03.116Z,360.00
2018-07-04T07:37:03.061Z,360.00
2018-07-04T07:38:03.000Z,360.00
2018-07-04T07:39:02.947Z,360.00
2018-07-04T07:40:02.888Z,360.00
2018-07-04T07:41:02.844Z,360.00
2018-07-04T07:42:02.798Z,360.00
2018-07-04T07:43:02.719Z,360.00
2018-07-04T07:44:02.668Z,360.00
2018-07-04T07:45:02.608Z,360.00
2018-07-04T07:46:02.553Z,360.00
2018-07-04T07:47:02.495Z,360.00
2018-07-04T07:48:02.436Z,360.00
2018-07-04T07:49:02.385Z,360.00
2018-07-04T07:50:02.329Z,360.00
2018-07-04T07:51:02.270Z,360.00
2018-07-04T07:52:02.216Z,354.38
2018-07-04T07:53:02.161Z,354.38
2018-07-04T07:54:02.177Z,354.38
2018-07-04T07:55:02.053Z,354.38
2018-07-04T07:56:01.989Z,354.38
2018-07-04T07:57:01.943Z,354.38
2018-07-04T07:58:01.882Z,354.38
2018-07-04T07:59:01.825Z,354.38
2018-07-04T08:00:01.767Z,354.38
2018-07-04T08:01:01.714Z,360.00
2018-07-04T08:02:01.657Z,354.38
2018-07-04T08:03:01.600Z,354.38
2018-07-04T08:04:01.549Z,354.38
2018-07-04T08:05:01.488Z,354.38
2018-07-04T08:06:01.429Z,354.38
2018-07-04T08:07:01.378Z,354.38
2018-07-04T08:08:01.327Z,354.38
2018-07-04T08:09:01.256Z,354.38
2018-07-04T08:10:01.205Z,354.38
2018-07-04T08:11:01.144Z,354.38
2018-07-04T08:12:01.100Z,354.38
2018-07-04T08:13:01.041Z,348.75
2018-07-04T08:14:00.982Z,354.38
2018-07-04T08:15:00.929Z,348.75
2018-07-04T08:16:00.872Z,348.75
2018-07-04T08:17:00.814Z,348.75
2018-07-04T08:18:00.758Z,348.75
2018-07-04T08:19:00.701Z,348.75
2018-07-04T08:20:00.645Z,348.75
2018-07-04T08:21:00.601Z,348.75
2018-07-04T08:22:00.534Z,348.75
2018-07-04T08:23:00.487Z,348.75
2018-07-04T08:24:00.421Z,348.75
2018-07-04T08:25:00.370Z,348.75
2018-07-04T08:26:00.309Z,348.75
2018-07-04T08:27:00.255Z,348.75
2018-07-04T08:28:00.199Z,348.75
2018-07-04T08:29:00.142Z,348.75
2018-07-04T08:30:00.113Z,348.75
2018-07-04T08:31:00.030Z,348.75
2018-07-04T08:31:59.973Z,348.75
2018-07-04T08:32:59.921Z,348.75
2018-07-04T08:33:59.873Z,348.75
2018-07-04T08:34:59.805Z,348.75
2018-07-04T08:35:59.757Z,348.75
2018-07-04T08:36:59.695Z,348.75
2018-07-04T08:37:59.642Z,348.75
2018-07-04T08:38:59.606Z,348.75
2018-07-04T08:39:59.529Z,348.75
2018-07-04T08:40:59.472Z,348.75
2018-07-04T08:41:59.418Z,348.75
2018-07-04T08:42:59.364Z,348.75
2018-07-04T08:43:59.301Z,348.75
2018-07-04T08:44:59.250Z,354.38
2018-07-04T08:45:59.192Z,348.75
2018-07-04T08:46:59.141Z,348.75
2018-07-04T08:47:59.083Z,348.75
2018-07-04T08:48:59.026Z,348.75
2018-07-04T08:49:58.972Z,348.75
2018-07-04T08:50:58.911Z,348.75
2018-07-04T08:51:58.856Z,348.75
2018-07-04T08:52:58.852Z,348.75
2018-07-04T08:53:58.746Z,348.75
2018-07-04T08:54:58.685Z,348.75
2018-07-04T08:55:58.637Z,348.75
2018-07-04T08:56:58.584Z,348.75
2018-07-04T08:57:58.524Z,348.75
2018-07-04T08:58:58.468Z,348.75
2018-07-04T08:59:58.415Z,348.75
2018-07-04T09:00:58.355Z,348.75
2018-07-04T09:01:58.300Z,348.75
2018-07-04T09:02:58.244Z,348.75
2018-07-04T09:03:58.187Z,348.75
2018-07-04T09:04:58.142Z,348.75
2018-07-04T09:05:58.076Z,348.75
2018-07-04T09:06:58.027Z,348.75
2018-07-04T09:07:57.966Z,348.75
2018-07-04T09:08:57.909Z,348.75
2018-07-04T09:09:57.858Z,348.75
2018-07-04T09:10:57.799Z,348.75
2018-07-04T09:11:57.747Z,348.75
2018-07-04T09:12:57.690Z,348.75
2018-07-04T09:13:57.636Z,348.75
2018-07-04T09:14:57.577Z,348.75
2018-07-04T09:15:57.520Z,348.75
2018-07-04T09:16:57.468Z,348.75
2018-07-04T09:17:57.411Z,348.75
2018-07-04T09:18:57.362Z,348.75
2018-07-04T09:19:57.300Z,348.75
2018-07-04T09:20:57.243Z,348.75
2018-07-04T09:21:57.186Z,348.75
2018-07-04T09:22:57.136Z,348.75
2018-07-04T09:23:57.072Z,348.75
2018-07-04T09:24:57.025Z,348.75
2018-07-04T09:25:56.968Z,354.38
2018-07-04T09:26:56.908Z,348.75
2018-07-04T09:27:56.856Z,348.75
2018-07-04T09:28:56.797Z,348.75
2018-07-04T09:29:56.744Z,348.75
2018-07-04T09:30:56.689Z,348.75
2018-07-04T09:31:56.633Z,348.75
2018-07-04T09:32:56.577Z,348.75
2018-07-04T09:33:56.520Z,348.75
2018-07-04T09:34:56.465Z,348.75
2018-07-04T09:35:56.410Z,348.75
2018-07-04T09:36:56.361Z,348.75
2018-07-04T09:37:56.299Z,348.75
2018-07-04T09:38:56.246Z,348.75
2018-07-04T09:39:56.189Z,348.75
2018-07-04T09:40:56.137Z,354.38
2018-07-04T09:41:56.077Z,354.38
2018-07-04T09:42:56.024Z,354.38
2018-07-04T09:43:55.977Z,354.38
2018-07-04T09:44:55.911Z,360.00
2018-07-04T09:45:55.854Z,360.00
2018-07-04T09:46:55.796Z,354.38
2018-07-04T09:47:55.749Z,354.38
2018-07-04T09:48:55.695Z,354.38
2018-07-04T09:49:55.634Z,354.38
2018-07-04T09:50:55.579Z,354.38
2018-07-04T09:51:55.524Z,354.38
2018-07-04T09:52:55.470Z,354.38
2018-07-04T09:53:55.409Z,354.38
2018-07-04T09:54:55.359Z,354.38
2018-07-04T09:55:55.300Z,354.38
2018-07-04T09:56:55.249Z,360.00
2018-07-04T09:57:55.192Z,360.00
2018-07-04T09:58:55.200Z,360.00
2018-07-04T09:59:55.087Z,360.00
2018-07-04T10:00:55.027Z,360.00
2018-07-04T10:01:54.971Z,360.00
2018-07-04T10:02:54.922Z,360.00
2018-07-04T10:03:54.868Z,360.00
2018-07-04T10:04:54.802Z,360.00
2018-07-04T10:05:54.747Z,360.00
2018-07-04T10:06:54.692Z,360.00
2018-07-04T10:07:54.637Z,360.00
2018-07-04T10:08:54.581Z,365.63
2018-07-04T10:09:54.528Z,365.63
2018-07-04T10:10:54.479Z,365.63
2018-07-04T10:11:54.418Z,365.63
2018-07-04T10:12:54.362Z,365.63
2018-07-04T10:13:54.305Z,365.63
2018-07-04T10:14:54.251Z,365.63
2018-07-04T10:15:54.196Z,371.25
2018-07-04T10:16:54.137Z,371.25
2018-07-04T10:17:54.087Z,371.25
2018-07-04T10:18:54.030Z,371.25
2018-07-04T10:19:53.973Z,371.25
2018-07-04T10:20:53.921Z,371.25
2018-07-04T10:21:53.870Z,371.25
2018-07-04T10:22:53.816Z,371.25
2018-07-04T10:23:53.755Z,371.25
2018-07-04T10:24:53.698Z,376.88
2018-07-04T10:25:53.641Z,376.88
2018-07-04T10:26:53.592Z,376.88
2018-07-04T10:27:53.527Z,376.88
2018-07-04T10:28:53.479Z,371.25
2018-07-04T10:29:53.423Z,376.88
2018-07-04T10:30:53.367Z,376.88
2018-07-04T10:31:53.310Z,376.88
2018-07-04T10:32:53.254Z,376.88
2018-07-04T10:33:53.208Z,376.88
2018-07-04T10:34:53.153Z,376.88
2018-07-04T10:35:53.093Z,388.13
2018-07-04T10:36:53.036Z,382.50
2018-07-04T10:37:52.978Z,382.50
2018-07-04T10:38:52.931Z,388.13
2018-07-04T10:39:52.868Z,388.13
2018-07-04T10:40:52.846Z,388.13
2018-07-04T10:41:52.761Z,388.13
2018-07-04T10:42:52.705Z,393.75
2018-07-04T10:43:52.655Z,388.13
2018-07-04T10:44:52.683Z,388.13
2018-07-04T10:45:52.542Z,388.13
2018-07-04T10:46:52.487Z,388.13
2018-07-04T10:47:52.431Z,393.75
2018-07-04T10:48:52.396Z,393.75
2018-07-04T10:49:52.329Z,399.38
2018-07-04T10:50:52.392Z,399.38
2018-07-04T10:51:52.236Z,393.75
2018-07-04T10:52:52.155Z,393.75
2018-07-04T10:53:52.174Z,393.75
2018-07-04T10:54:52.053Z,393.75
2018-07-04T10:55:52.001Z,399.38
2018-07-04T10:56:52.612Z,399.38
2018-07-04T10:57:51.888Z,405.00
2018-07-04T10:58:51.824Z,399.38
2018-07-04T10:59:51.775Z,399.38
2018-07-04T11:00:51.729Z,405.00
2018-07-04T11:01:51.661Z,405.00
2018-07-04T11:02:51.608Z,410.63
2018-07-04T11:03:51.556Z,410.63
2018-07-04T11:04:51.505Z,416.25
2018-07-04T11:05:51.442Z,416.25
2018-07-04T11:06:51.391Z,427.50
2018-07-04T11:07:51.378Z,433.13
2018-07-04T11:08:51.277Z,438.75
2018-07-04T11:09:51.253Z,444.38
2018-07-04T11:10:51.165Z,450.00
2018-07-04T11:11:51.112Z,455.63
2018-07-04T11:12:51.061Z,466.88
2018-07-04T11:13:51.005Z,461.25
2018-07-04T11:14:50.958Z,466.88
2018-07-04T11:15:50.908Z,472.50
2018-07-04T11:16:50.901Z,478.13
2018-07-04T11:17:50.788Z,483.75
2018-07-04T11:18:50.753Z,489.38
2018-07-04T11:19:50.687Z,495.00
2018-07-04T11:20:50.635Z,500.63
2018-07-04T11:21:50.616Z,511.88
2018-07-04T11:22:50.526Z,528.75
2018-07-04T11:23:51.087Z,618.75
2018-07-04T11:24:50.422Z,2576.25
2018-07-04T11:25:50.376Z,4876.88
2018-07-04T11:26:50.349Z,5079.38
2018-07-04T11:27:50.283Z,4899.38
2018-07-04T11:28:51.150Z,4691.25
2018-07-04T11:29:50.181Z,4545.00
2018-07-04T11:30:50.237Z,4387.50
2018-07-04T11:31:50.074Z,4269.38
2018-07-04T11:32:50.024Z,4190.63
2018-07-04T11:33:49.975Z,4145.63
2018-07-04T11:34:50.595Z,4201.88
2018-07-04T11:35:49.880Z,4353.75
2018-07-04T11:36:49.829Z,4516.88
2018-07-04T11:37:49.822Z,4702.50
2018-07-04T11:38:49.737Z,4860.00
2018-07-04T11:39:49.688Z,4950.00
2018-07-04T11:40:49.634Z,5090.63
2018-07-04T11:41:49.590Z,5248.13
2018-07-04T11:42:49.543Z,5388.75
2018-07-04T11:43:49.498Z,5445.00
2018-07-04T11:44:49.452Z,5450.63
2018-07-04T11:45:49.412Z,5416.88
2018-07-04T11:46:49.363Z,5310.00
2018-07-04T11:47:49.324Z,5158.13
2018-07-04T11:48:49.272Z,4989.38
2018-07-04T11:49:49.223Z,4786.88
2018-07-04T11:50:49.189Z,4640.63
2018-07-04T11:51:52.104Z,4471.88
2018-07-04T11:52:49.102Z,4443.75
2018-07-04T11:53:49.057Z,4522.50
2018-07-04T11:54:49.009Z,4691.25
2018-07-04T11:55:48.967Z,4831.88
2018-07-04T11:56:48.925Z,4950.00
2018-07-04T11:57:48.881Z,5034.38
2018-07-04T11:58:48.839Z,5141.25
2018-07-04T11:59:48.797Z,5242.50
2018-07-04T12:00:49.606Z,5315.63
2018-07-04T12:01:49.662Z,5394.38
2018-07-04T12:02:48.672Z,5416.88
2018-07-04T12:03:48.624Z,5388.75
2018-07-04T12:04:48.591Z,5400.00
2018-07-04T12:05:48.543Z,5265.00
2018-07-04T12:06:48.496Z,5079.38
2018-07-04T12:07:48.461Z,4938.75
2018-07-04T12:08:48.418Z,4809.38
2018-07-04T12:09:48.374Z,4691.25
2018-07-04T12:10:48.355Z,4657.50
2018-07-04T12:11:48.298Z,4747.50
2018-07-04T12:12:48.251Z,4905.00
2018-07-04T12:13:48.206Z,5040.00
2018-07-04T12:14:48.163Z,5146.88
2018-07-04T12:15:48.125Z,5186.25
2018-07-04T12:16:48.092Z,5231.25
2018-07-04T12:17:48.042Z,5270.63
2018-07-04T12:18:48.005Z,5253.75
2018-07-04T12:19:47.958Z,5265.00
2018-07-04T12:20:47.927Z,5259.38
2018-07-04T12:21:47.871Z,5220.00
2018-07-04T12:22:47.835Z,5135.63
2018-07-04T12:23:47.799Z,4961.25
2018-07-04T12:24:47.752Z,4860.00
2018-07-04T12:25:47.713Z,4646.25
2018-07-04T12:26:47.708Z,4511.25
2018-07-04T12:27:47.628Z,4387.50
2018-07-04T12:28:47.591Z,4291.88
2018-07-04T12:29:47.550Z,4230.00
2018-07-04T12:30:47.514Z,4280.63
2018-07-04T12:31:47.475Z,4398.75
2018-07-04T12:32:47.423Z,4539.38
2018-07-04T12:33:47.381Z,4657.50
2018-07-04T12:34:47.342Z,4758.75
2018-07-04T12:35:47.302Z,4944.38
2018-07-04T12:36:47.263Z,5068.13
2018-07-04T12:37:47.224Z,5169.38
2018-07-04T12:38:47.186Z,5315.63
2018-07-04T12:39:47.146Z,5416.88
2018-07-04T12:40:47.105Z,5456.25
2018-07-04T12:41:47.067Z,5315.63
2018-07-04T12:42:47.031Z,5186.25
2018-07-04T12:43:47.063Z,5090.63
2018-07-04T12:44:46.942Z,4961.25
2018-07-04T12:45:46.936Z,4702.50
2018-07-04T12:46:46.907Z,4432.50
2018-07-04T12:47:46.821Z,4308.75
2018-07-04T12:48:46.786Z,4286.25
2018-07-04T12:49:46.754Z,4477.50
2018-07-04T12:50:46.700Z,4741.88
2018-07-04T12:51:46.666Z,4899.38
2018-07-04T12:52:46.622Z,5011.88
2018-07-04T12:53:46.584Z,5028.75
2018-07-04T12:54:46.678Z,5197.50
2018-07-04T12:55:46.499Z,5304.38
2018-07-04T12:56:46.468Z,5405.63
2018-07-04T12:57:46.418Z,5416.88
2018-07-04T12:58:46.391Z,5405.63
2018-07-04T12:59:46.346Z,5355.00
2018-07-04T13:00:46.371Z,5259.38
2018-07-04T13:01:46.261Z,5152.50
2018-07-04T13:02:46.228Z,5006.25
2018-07-04T13:03:46.180Z,4888.13
2018-07-04T13:04:46.140Z,4764.38
2018-07-04T13:05:46.616Z,4758.75
2018-07-04T13:06:46.109Z,4820.63
2018-07-04T13:07:46.063Z,4995.00
2018-07-04T13:08:45.983Z,5101.88
2018-07-04T13:09:45.975Z,5180.63
2018-07-04T13:10:45.939Z,5270.63
2018-07-04T13:11:45.885Z,5355.00
2018-07-04T13:12:45.836Z,5523.75
2018-07-04T13:13:45.796Z,5585.63
2018-07-04T13:14:45.746Z,5495.63
2018-07-04T13:15:45.709Z,5349.38
2018-07-04T13:16:45.668Z,5175.00
2018-07-04T13:17:45.624Z,5011.88
2018-07-04T13:18:45.589Z,4865.63
2018-07-04T13:19:45.544Z,4702.50
2018-07-04T13:20:45.511Z,4505.63
2018-07-04T13:21:45.630Z,4376.25
2018-07-04T13:22:45.432Z,4314.38
2018-07-04T13:23:45.407Z,4404.38
2018-07-04T13:24:45.353Z,4584.38
2018-07-04T13:25:45.320Z,4758.75
2018-07-04T13:26:45.276Z,4933.13
2018-07-04T13:27:45.237Z,5045.63
2018-07-04T13:28:45.196Z,5146.88
2018-07-04T13:29:45.159Z,5236.88
2018-07-04T13:30:45.124Z,5315.63
2018-07-04T13:31:45.087Z,5343.75
2018-07-04T13:32:45.045Z,5326.88
2018-07-04T13:33:45.007Z,5259.38
2018-07-04T13:34:44.982Z,5186.25
2018-07-04T13:35:44.946Z,5107.50
2018-07-04T13:36:44.891Z,5006.25
2018-07-04T13:37:44.853Z,4888.13
2018-07-04T13:38:44.877Z,4747.50
2018-07-04T13:39:44.792Z,4618.13
2018-07-04T13:40:44.757Z,4646.25
2018-07-04T13:41:44.737Z,4753.13